sensor_id;sensor_type;location;lat;lon;timestamp;P1;durP1;ratioP1;P2;durP2;ratioP2
83556;SDS011;73523;55.740;13.276;2024-02-15T00:00:35;1.20;;;1.10;;
83556;SDS011;73523;55.740;13.276;2024-02-15T00:03:02;1.10;;;1.00;;
83556;SDS011;73523;55.740;13.276;2024-02-15T00:05:28;1.60;;;1.00;;
83556;SDS011;73523;55.740;13.276;2024-02-15T00:07:53;0.85;;;0.85;;
83556;SDS011;73523;55.740;13.276;2024-02-15T00:10:19;1.57;;;1.20;;
83556;SDS011;73523;55.740;13.276;2024-02-15T00:12:48;1.15;;;1.02;;
83556;SDS011;73523;55.740;13.276;2024-02-15T00:15:15;1.20;;;0.90;;
83556;SDS011;73523;55.740;13.276;2024-02-15T00:17:40;1.20;;;1.10;;
83556;SDS011;73523;55.740;13.276;2024-02-15T00:20:06;1.20;;;1.00;;
83556;SDS011;73523;55.740;13.276;2024-02-15T00:22:35;2.05;;;1.30;;
83556;SDS011;73523;55.740;13.276;2024-02-15T00:25:06;1.33;;;1.20;;
83556;SDS011;73523;55.740;13.276;2024-02-15T00:27:34;1.50;;;0.93;;
83556;SDS011;73523;55.740;13.276;2024-02-15T00:30:05;1.35;;;1.20;;
83556;SDS011;73523;55.740;13.276;2024-02-15T00:32:32;1.20;;;1.10;;
83556;SDS011;73523;55.740;13.276;2024-02-15T00:35:01;1.90;;;1.10;;
83556;SDS011;73523;55.740;13.276;2024-02-15T00:37:27;1.15;;;1.00;;
83556;SDS011;73523;55.740;13.276;2024-02-15T00:39:52;1.20;;;1.10;;
83556;SDS011;73523;55.740;13.276;2024-02-15T00:42:17;1.50;;;1.20;;
83556;SDS011;73523;55.740;13.276;2024-02-15T00:44:44;1.30;;;1.20;;
83556;SDS011;73523;55.740;13.276;2024-02-15T00:47:09;2.60;;;1.30;;
83556;SDS011;73523;55.740;13.276;2024-02-15T00:49:35;1.73;;;1.15;;
83556;SDS011;73523;55.740;13.276;2024-02-15T00:52:01;1.10;;;0.93;;
83556;SDS011;73523;55.740;13.276;2024-02-15T00:54:26;1.67;;;1.00;;
83556;SDS011;73523;55.740;13.276;2024-02-15T00:56:52;1.57;;;1.10;;
83556;SDS011;73523;55.740;13.276;2024-02-15T00:59:17;1.60;;;1.10;;
83556;SDS011;73523;55.740;13.276;2024-02-15T01:01:43;1.00;;;0.90;;
83556;SDS011;73523;55.740;13.276;2024-02-15T01:04:08;1.80;;;1.10;;
83556;SDS011;73523;55.740;13.276;2024-02-15T01:06:33;1.00;;;0.90;;
83556;SDS011;73523;55.740;13.276;2024-02-15T01:08:59;1.20;;;1.00;;
83556;SDS011;73523;55.740;13.276;2024-02-15T01:11:29;1.15;;;1.05;;
83556;SDS011;73523;55.740;13.276;2024-02-15T01:13:57;0.85;;;0.80;;
83556;SDS011;73523;55.740;13.276;2024-02-15T01:16:23;1.13;;;1.03;;
83556;SDS011;73523;55.740;13.276;2024-02-15T01:18:49;1.20;;;0.63;;
83556;SDS011;73523;55.740;13.276;2024-02-15T01:21:14;1.30;;;1.00;;
83556;SDS011;73523;55.740;13.276;2024-02-15T01:23:40;1.13;;;1.03;;
83556;SDS011;73523;55.740;13.276;2024-02-15T01:26:05;1.40;;;1.03;;
83556;SDS011;73523;55.740;13.276;2024-02-15T01:28:30;1.13;;;0.97;;
83556;SDS011;73523;55.740;13.276;2024-02-15T01:30:56;1.00;;;0.90;;
83556;SDS011;73523;55.740;13.276;2024-02-15T01:33:21;1.03;;;0.90;;
83556;SDS011;73523;55.740;13.276;2024-02-15T01:35:46;0.93;;;0.70;;
83556;SDS011;73523;55.740;13.276;2024-02-15T01:38:13;1.20;;;1.02;;
83556;SDS011;73523;55.740;13.276;2024-02-15T01:40:38;1.23;;;1.07;;
83556;SDS011;73523;55.740;13.276;2024-02-15T01:43:04;1.00;;;0.90;;
83556;SDS011;73523;55.740;13.276;2024-02-15T01:45:29;1.00;;;0.90;;
83556;SDS011;73523;55.740;13.276;2024-02-15T01:47:56;1.30;;;1.00;;
83556;SDS011;73523;55.740;13.276;2024-02-15T01:50:22;1.10;;;1.00;;
83556;SDS011;73523;55.740;13.276;2024-02-15T01:52:49;1.23;;;0.88;;
83556;SDS011;73523;55.740;13.276;2024-02-15T01:55:19;1.20;;;0.90;;
83556;SDS011;73523;55.740;13.276;2024-02-15T01:57:46;2.22;;;1.00;;
83556;SDS011;73523;55.740;13.276;2024-02-15T02:00:14;1.00;;;0.90;;
83556;SDS011;73523;55.740;13.276;2024-02-15T02:02:42;1.10;;;1.00;;
83556;SDS011;73523;55.740;13.276;2024-02-15T02:05:09;1.17;;;1.08;;
83556;SDS011;73523;55.740;13.276;2024-02-15T02:07:35;0.93;;;0.82;;
83556;SDS011;73523;55.740;13.276;2024-02-15T02:10:01;1.13;;;1.00;;
83556;SDS011;73523;55.740;13.276;2024-02-15T02:12:27;1.10;;;1.00;;
83556;SDS011;73523;55.740;13.276;2024-02-15T02:14:53;1.37;;;1.13;;
83556;SDS011;73523;55.740;13.276;2024-02-15T02:17:19;1.38;;;0.90;;
83556;SDS011;73523;55.740;13.276;2024-02-15T02:19:45;1.20;;;1.00;;
83556;SDS011;73523;55.740;13.276;2024-02-15T02:22:10;1.17;;;0.90;;
83556;SDS011;73523;55.740;13.276;2024-02-15T02:24:40;0.90;;;0.80;;
83556;SDS011;73523;55.740;13.276;2024-02-15T02:27:13;0.90;;;0.90;;
83556;SDS011;73523;55.740;13.276;2024-02-15T02:29:43;1.10;;;0.80;;
83556;SDS011;73523;55.740;13.276;2024-02-15T02:32:11;0.70;;;0.70;;
83556;SDS011;73523;55.740;13.276;2024-02-15T02:34:37;1.00;;;0.90;;
83556;SDS011;73523;55.740;13.276;2024-02-15T02:37:03;1.20;;;1.10;;
83556;SDS011;73523;55.740;13.276;2024-02-15T02:39:30;1.85;;;0.88;;
83556;SDS011;73523;55.740;13.276;2024-02-15T02:41:56;0.93;;;0.85;;
83556;SDS011;73523;55.740;13.276;2024-02-15T02:44:22;1.08;;;0.90;;
83556;SDS011;73523;55.740;13.276;2024-02-15T02:46:47;0.90;;;0.80;;
83556;SDS011;73523;55.740;13.276;2024-02-15T02:49:12;0.97;;;0.87;;
83556;SDS011;73523;55.740;13.276;2024-02-15T02:51:38;1.20;;;1.00;;
83556;SDS011;73523;55.740;13.276;2024-02-15T02:54:03;1.03;;;1.00;;
83556;SDS011;73523;55.740;13.276;2024-02-15T02:56:31;1.20;;;1.00;;
83556;SDS011;73523;55.740;13.276;2024-02-15T02:58:57;1.00;;;0.80;;
83556;SDS011;73523;55.740;13.276;2024-02-15T03:01:23;1.30;;;0.90;;
83556;SDS011;73523;55.740;13.276;2024-02-15T03:03:51;1.43;;;0.90;;
83556;SDS011;73523;55.740;13.276;2024-02-15T03:06:17;1.10;;;1.00;;
83556;SDS011;73523;55.740;13.276;2024-02-15T03:08:42;1.08;;;0.90;;
83556;SDS011;73523;55.740;13.276;2024-02-15T03:11:09;1.10;;;0.90;;
83556;SDS011;73523;55.740;13.276;2024-02-15T03:13:34;1.43;;;0.93;;
83556;SDS011;73523;55.740;13.276;2024-02-15T03:16:00;1.08;;;0.98;;
83556;SDS011;73523;55.740;13.276;2024-02-15T03:18:26;1.20;;;1.10;;
83556;SDS011;73523;55.740;13.276;2024-02-15T03:20:51;0.90;;;0.80;;
83556;SDS011;73523;55.740;13.276;2024-02-15T03:23:16;1.10;;;1.00;;
83556;SDS011;73523;55.740;13.276;2024-02-15T03:25:42;1.70;;;0.80;;
83556;SDS011;73523;55.740;13.276;2024-02-15T03:28:07;2.00;;;0.95;;
83556;SDS011;73523;55.740;13.276;2024-02-15T03:30:32;1.47;;;1.13;;
83556;SDS011;73523;55.740;13.276;2024-02-15T03:32:59;1.10;;;1.00;;
83556;SDS011;73523;55.740;13.276;2024-02-15T03:35:27;1.30;;;1.00;;
83556;SDS011;73523;55.740;13.276;2024-02-15T03:37:56;0.98;;;0.82;;
83556;SDS011;73523;55.740;13.276;2024-02-15T03:40:22;1.23;;;1.13;;
83556;SDS011;73523;55.740;13.276;2024-02-15T03:42:48;1.00;;;0.90;;
83556;SDS011;73523;55.740;13.276;2024-02-15T03:45:15;1.38;;;0.90;;
83556;SDS011;73523;55.740;13.276;2024-02-15T03:47:41;0.85;;;0.80;;
83556;SDS011;73523;55.740;13.276;2024-02-15T03:50:06;1.20;;;1.10;;
83556;SDS011;73523;55.740;13.276;2024-02-15T03:52:36;0.95;;;0.90;;
83556;SDS011;73523;55.740;13.276;2024-02-15T03:55:02;1.15;;;1.05;;
83556;SDS011;73523;55.740;13.276;2024-02-15T03:57:28;1.27;;;1.00;;
83556;SDS011;73523;55.740;13.276;2024-02-15T03:59:54;1.33;;;0.95;;
83556;SDS011;73523;55.740;13.276;2024-02-15T04:02:22;1.70;;;1.00;;
83556;SDS011;73523;55.740;13.276;2024-02-15T04:04:54;1.10;;;1.00;;
83556;SDS011;73523;55.740;13.276;2024-02-15T04:07:20;1.30;;;1.10;;
83556;SDS011;73523;55.740;13.276;2024-02-15T04:09:47;1.10;;;1.00;;
83556;SDS011;73523;55.740;13.276;2024-02-15T04:12:13;1.13;;;0.93;;
83556;SDS011;73523;55.740;13.276;2024-02-15T04:14:39;1.08;;;0.98;;
83556;SDS011;73523;55.740;13.276;2024-02-15T04:17:05;1.10;;;0.90;;
83556;SDS011;73523;55.740;13.276;2024-02-15T04:19:31;0.87;;;0.87;;
83556;SDS011;73523;55.740;13.276;2024-02-15T04:21:56;1.00;;;0.90;;
83556;SDS011;73523;55.740;13.276;2024-02-15T04:24:22;1.23;;;1.10;;
83556;SDS011;73523;55.740;13.276;2024-02-15T04:26:48;1.02;;;0.90;;
83556;SDS011;73523;55.740;13.276;2024-02-15T04:29:14;1.10;;;1.00;;
83556;SDS011;73523;55.740;13.276;2024-02-15T04:31:40;1.42;;;0.98;;
83556;SDS011;73523;55.740;13.276;2024-02-15T04:34:07;1.00;;;0.75;;
83556;SDS011;73523;55.740;13.276;2024-02-15T04:36:34;1.20;;;1.10;;
83556;SDS011;73523;55.740;13.276;2024-02-15T04:39:00;1.08;;;0.85;;
83556;SDS011;73523;55.740;13.276;2024-02-15T04:41:29;0.98;;;0.88;;
83556;SDS011;73523;55.740;13.276;2024-02-15T04:43:54;1.20;;;1.00;;
83556;SDS011;73523;55.740;13.276;2024-02-15T04:46:19;0.97;;;0.87;;
83556;SDS011;73523;55.740;13.276;2024-02-15T04:48:49;1.20;;;1.10;;
83556;SDS011;73523;55.740;13.276;2024-02-15T04:51:15;0.90;;;0.75;;
83556;SDS011;73523;55.740;13.276;2024-02-15T04:53:44;1.40;;;0.90;;
83556;SDS011;73523;55.740;13.276;2024-02-15T04:56:11;1.00;;;0.90;;
83556;SDS011;73523;55.740;13.276;2024-02-15T04:58:42;1.25;;;0.70;;
83556;SDS011;73523;55.740;13.276;2024-02-15T05:01:15;1.13;;;0.93;;
83556;SDS011;73523;55.740;13.276;2024-02-15T05:03:44;3.30;;;0.90;;
83556;SDS011;73523;55.740;13.276;2024-02-15T05:06:10;1.20;;;0.88;;
83556;SDS011;73523;55.740;13.276;2024-02-15T05:08:38;2.00;;;0.80;;
83556;SDS011;73523;55.740;13.276;2024-02-15T05:11:07;0.93;;;0.80;;
83556;SDS011;73523;55.740;13.276;2024-02-15T05:13:39;2.28;;;0.98;;
83556;SDS011;73523;55.740;13.276;2024-02-15T05:16:05;0.90;;;0.70;;
83556;SDS011;73523;55.740;13.276;2024-02-15T05:18:30;1.13;;;0.90;;
83556;SDS011;73523;55.740;13.276;2024-02-15T05:20:56;0.83;;;0.77;;
83556;SDS011;73523;55.740;13.276;2024-02-15T05:23:21;1.70;;;0.73;;
83556;SDS011;73523;55.740;13.276;2024-02-15T05:25:46;0.87;;;0.80;;
83556;SDS011;73523;55.740;13.276;2024-02-15T05:28:12;1.07;;;0.70;;
83556;SDS011;73523;55.740;13.276;2024-02-15T05:30:37;1.90;;;0.70;;
83556;SDS011;73523;55.740;13.276;2024-02-15T05:33:04;2.10;;;0.88;;
83556;SDS011;73523;55.740;13.276;2024-02-15T05:35:29;2.90;;;1.20;;
83556;SDS011;73523;55.740;13.276;2024-02-15T05:37:54;2.67;;;0.87;;
83556;SDS011;73523;55.740;13.276;2024-02-15T05:40:21;3.25;;;0.90;;
83556;SDS011;73523;55.740;13.276;2024-02-15T05:42:46;3.33;;;1.10;;
83556;SDS011;73523;55.740;13.276;2024-02-15T05:47:54;2.67;;;0.88;;
83556;SDS011;73523;55.740;13.276;2024-02-15T05:50:20;1.05;;;0.70;;
83556;SDS011;73523;55.740;13.276;2024-02-15T05:52:46;1.70;;;0.77;;
83556;SDS011;73523;55.740;13.276;2024-02-15T05:55:12;2.38;;;0.80;;
83556;SDS011;73523;55.740;13.276;2024-02-15T05:57:41;1.00;;;0.70;;
83556;SDS011;73523;55.740;13.276;2024-02-15T06:00:08;2.78;;;0.80;;
83556;SDS011;73523;55.740;13.276;2024-02-15T06:02:33;1.60;;;0.80;;
83556;SDS011;73523;55.740;13.276;2024-02-15T06:04:59;2.20;;;0.70;;
83556;SDS011;73523;55.740;13.276;2024-02-15T06:07:28;1.50;;;0.80;;
83556;SDS011;73523;55.740;13.276;2024-02-15T06:09:53;0.80;;;0.70;;
83556;SDS011;73523;55.740;13.276;2024-02-15T06:12:19;1.50;;;0.90;;
83556;SDS011;73523;55.740;13.276;2024-02-15T06:14:45;1.05;;;0.80;;
83556;SDS011;73523;55.740;13.276;2024-02-15T06:17:11;2.03;;;0.90;;
83556;SDS011;73523;55.740;13.276;2024-02-15T06:19:36;1.80;;;0.80;;
83556;SDS011;73523;55.740;13.276;2024-02-15T06:22:02;1.38;;;0.82;;
83556;SDS011;73523;55.740;13.276;2024-02-15T06:24:29;1.85;;;0.70;;
83556;SDS011;73523;55.740;13.276;2024-02-15T06:26:54;0.85;;;0.60;;
83556;SDS011;73523;55.740;13.276;2024-02-15T06:29:24;2.80;;;0.90;;
83556;SDS011;73523;55.740;13.276;2024-02-15T06:32:09;0.90;;;0.70;;
83556;SDS011;73523;55.740;13.276;2024-02-15T06:34:53;0.82;;;0.70;;
83556;SDS011;73523;55.740;13.276;2024-02-15T06:37:37;1.55;;;0.80;;
83556;SDS011;73523;55.740;13.276;2024-02-15T06:40:22;1.17;;;0.73;;
83556;SDS011;73523;55.740;13.276;2024-02-15T06:42:47;1.07;;;0.73;;
83556;SDS011;73523;55.740;13.276;2024-02-15T06:45:13;0.77;;;0.70;;
83556;SDS011;73523;55.740;13.276;2024-02-15T06:47:42;2.10;;;0.60;;
83556;SDS011;73523;55.740;13.276;2024-02-15T06:50:10;0.73;;;0.70;;
83556;SDS011;73523;55.740;13.276;2024-02-15T06:52:37;1.70;;;0.90;;
83556;SDS011;73523;55.740;13.276;2024-02-15T06:55:03;1.80;;;0.60;;
83556;SDS011;73523;55.740;13.276;2024-02-15T06:57:29;0.70;;;0.70;;
83556;SDS011;73523;55.740;13.276;2024-02-15T06:59:55;0.98;;;0.80;;
83556;SDS011;73523;55.740;13.276;2024-02-15T07:02:21;0.80;;;0.70;;
83556;SDS011;73523;55.740;13.276;2024-02-15T07:04:48;1.03;;;0.60;;
83556;SDS011;73523;55.740;13.276;2024-02-15T07:07:14;1.43;;;0.60;;
83556;SDS011;73523;55.740;13.276;2024-02-15T07:09:39;2.70;;;0.70;;
83556;SDS011;73523;55.740;13.276;2024-02-15T07:12:05;1.08;;;0.63;;
83556;SDS011;73523;55.740;13.276;2024-02-15T07:14:30;0.80;;;0.70;;
83556;SDS011;73523;55.740;13.276;2024-02-15T07:16:56;0.90;;;0.60;;
83556;SDS011;73523;55.740;13.276;2024-02-15T07:19:24;3.95;;;0.88;;
83556;SDS011;73523;55.740;13.276;2024-02-15T07:21:51;3.35;;;0.85;;
83556;SDS011;73523;55.740;13.276;2024-02-15T07:24:16;4.00;;;1.05;;
83556;SDS011;73523;55.740;13.276;2024-02-15T07:26:41;1.90;;;0.93;;
83556;SDS011;73523;55.740;13.276;2024-02-15T07:29:07;2.07;;;0.70;;
83556;SDS011;73523;55.740;13.276;2024-02-15T07:31:33;1.35;;;0.80;;
83556;SDS011;73523;55.740;13.276;2024-02-15T07:33:58;0.70;;;0.60;;
83556;SDS011;73523;55.740;13.276;2024-02-15T07:36:24;2.20;;;0.70;;
83556;SDS011;73523;55.740;13.276;2024-02-15T07:38:50;1.02;;;0.70;;
83556;SDS011;73523;55.740;13.276;2024-02-15T07:41:18;1.10;;;0.70;;
83556;SDS011;73523;55.740;13.276;2024-02-15T07:43:50;0.68;;;0.60;;
83556;SDS011;73523;55.740;13.276;2024-02-15T07:46:17;0.77;;;0.50;;
83556;SDS011;73523;55.740;13.276;2024-02-15T07:48:43;1.70;;;0.87;;
83556;SDS011;73523;55.740;13.276;2024-02-15T07:51:12;0.95;;;0.70;;
83556;SDS011;73523;55.740;13.276;2024-02-15T07:53:40;0.95;;;0.80;;
83556;SDS011;73523;55.740;13.276;2024-02-15T07:56:05;1.77;;;0.70;;
83556;SDS011;73523;55.740;13.276;2024-02-15T07:58:31;1.05;;;0.50;;
83556;SDS011;73523;55.740;13.276;2024-02-15T08:00:56;0.90;;;0.60;;
83556;SDS011;73523;55.740;13.276;2024-02-15T08:03:22;1.05;;;0.60;;
83556;SDS011;73523;55.740;13.276;2024-02-15T08:05:48;1.17;;;0.80;;
83556;SDS011;73523;55.740;13.276;2024-02-15T08:08:13;0.80;;;0.68;;
83556;SDS011;73523;55.740;13.276;2024-02-15T08:10:38;1.50;;;0.70;;
83556;SDS011;73523;55.740;13.276;2024-02-15T08:13:04;0.77;;;0.57;;
83556;SDS011;73523;55.740;13.276;2024-02-15T08:15:29;0.90;;;0.53;;
83556;SDS011;73523;55.740;13.276;2024-02-15T08:17:55;1.80;;;0.60;;
83556;SDS011;73523;55.740;13.276;2024-02-15T08:20:20;0.80;;;0.67;;
83556;SDS011;73523;55.740;13.276;2024-02-15T08:22:46;1.10;;;0.55;;
83556;SDS011;73523;55.740;13.276;2024-02-15T08:25:12;0.88;;;0.65;;
83556;SDS011;73523;55.740;13.276;2024-02-15T08:27:40;0.98;;;0.60;;
83556;SDS011;73523;55.740;13.276;2024-02-15T08:30:12;1.58;;;0.70;;
83556;SDS011;73523;55.740;13.276;2024-02-15T08:32:41;1.45;;;0.60;;
83556;SDS011;73523;55.740;13.276;2024-02-15T08:35:08;0.73;;;0.60;;
83556;SDS011;73523;55.740;13.276;2024-02-15T08:37:35;2.60;;;0.60;;
83556;SDS011;73523;55.740;13.276;2024-02-15T08:40:02;0.68;;;0.65;;
83556;SDS011;73523;55.740;13.276;2024-02-15T08:42:43;0.90;;;0.57;;
83556;SDS011;73523;55.740;13.276;2024-02-15T08:45:09;0.77;;;0.52;;
83556;SDS011;73523;55.740;13.276;2024-02-15T08:47:38;1.03;;;0.60;;
83556;SDS011;73523;55.740;13.276;2024-02-15T08:50:05;0.50;;;0.50;;
83556;SDS011;73523;55.740;13.276;2024-02-15T08:52:31;0.80;;;0.80;;
83556;SDS011;73523;55.740;13.276;2024-02-15T08:54:57;0.50;;;0.50;;
83556;SDS011;73523;55.740;13.276;2024-02-15T08:57:24;0.57;;;0.52;;
83556;SDS011;73523;55.740;13.276;2024-02-15T08:59:49;0.60;;;0.50;;
83556;SDS011;73523;55.740;13.276;2024-02-15T09:02:16;0.65;;;0.60;;
83556;SDS011;73523;55.740;13.276;2024-02-15T09:04:42;0.60;;;0.60;;
83556;SDS011;73523;55.740;13.276;2024-02-15T09:07:07;0.90;;;0.70;;
83556;SDS011;73523;55.740;13.276;2024-02-15T09:09:34;0.70;;;0.67;;
83556;SDS011;73523;55.740;13.276;2024-02-15T09:12:02;1.00;;;0.60;;
83556;SDS011;73523;55.740;13.276;2024-02-15T09:14:30;0.80;;;0.60;;
83556;SDS011;73523;55.740;13.276;2024-02-15T09:16:59;1.33;;;0.80;;
83556;SDS011;73523;55.740;13.276;2024-02-15T09:19:25;0.85;;;0.60;;
83556;SDS011;73523;55.740;13.276;2024-02-15T09:21:50;0.68;;;0.47;;
83556;SDS011;73523;55.740;13.276;2024-02-15T09:24:15;0.60;;;0.60;;
83556;SDS011;73523;55.740;13.276;2024-02-15T09:26:41;0.60;;;0.50;;
83556;SDS011;73523;55.740;13.276;2024-02-15T09:29:07;0.60;;;0.50;;
83556;SDS011;73523;55.740;13.276;2024-02-15T09:31:33;0.80;;;0.60;;
83556;SDS011;73523;55.740;13.276;2024-02-15T09:34:00;0.70;;;0.50;;
83556;SDS011;73523;55.740;13.276;2024-02-15T09:36:25;1.60;;;0.60;;
83556;SDS011;73523;55.740;13.276;2024-02-15T09:38:50;0.97;;;0.40;;
83556;SDS011;73523;55.740;13.276;2024-02-15T09:41:15;1.27;;;0.60;;
83556;SDS011;73523;55.740;13.276;2024-02-15T09:43:41;2.28;;;0.60;;
83556;SDS011;73523;55.740;13.276;2024-02-15T09:46:08;1.50;;;0.60;;
83556;SDS011;73523;55.740;13.276;2024-02-15T09:48:33;1.53;;;0.60;;
83556;SDS011;73523;55.740;13.276;2024-02-15T09:50:59;1.58;;;0.57;;
83556;SDS011;73523;55.740;13.276;2024-02-15T09:53:26;1.10;;;0.63;;
83556;SDS011;73523;55.740;13.276;2024-02-15T09:55:53;0.82;;;0.60;;
83556;SDS011;73523;55.740;13.276;2024-02-15T09:58:19;0.65;;;0.65;;
83556;SDS011;73523;55.740;13.276;2024-02-15T10:00:48;1.52;;;0.50;;
83556;SDS011;73523;55.740;13.276;2024-02-15T10:03:15;0.85;;;0.75;;
83556;SDS011;73523;55.740;13.276;2024-02-15T10:05:43;0.57;;;0.45;;
83556;SDS011;73523;55.740;13.276;2024-02-15T10:08:09;0.60;;;0.50;;
83556;SDS011;73523;55.740;13.276;2024-02-15T10:10:36;1.55;;;0.60;;
83556;SDS011;73523;55.740;13.276;2024-02-15T10:13:01;0.63;;;0.60;;
83556;SDS011;73523;55.740;13.276;2024-02-15T10:15:30;0.80;;;0.60;;
83556;SDS011;73523;55.740;13.276;2024-02-15T10:17:57;1.40;;;0.55;;
83556;SDS011;73523;55.740;13.276;2024-02-15T10:20:26;1.38;;;0.63;;
83556;SDS011;73523;55.740;13.276;2024-02-15T10:25:23;1.17;;;0.60;;
83556;SDS011;73523;55.740;13.276;2024-02-15T10:27:52;0.55;;;0.50;;
83556;SDS011;73523;55.740;13.276;2024-02-15T10:30:26;0.90;;;0.60;;
83556;SDS011;73523;55.740;13.276;2024-02-15T10:32:52;0.50;;;0.50;;
83556;SDS011;73523;55.740;13.276;2024-02-15T10:35:20;1.00;;;0.60;;
83556;SDS011;73523;55.740;13.276;2024-02-15T10:37:47;0.90;;;0.68;;
83556;SDS011;73523;55.740;13.276;2024-02-15T10:40:17;0.75;;;0.50;;
83556;SDS011;73523;55.740;13.276;2024-02-15T10:42:43;0.80;;;0.77;;
83556;SDS011;73523;55.740;13.276;2024-02-15T10:45:14;0.85;;;0.70;;
83556;SDS011;73523;55.740;13.276;2024-02-15T10:47:43;1.15;;;0.60;;
83556;SDS011;73523;55.740;13.276;2024-02-15T10:50:10;1.30;;;0.60;;
83556;SDS011;73523;55.740;13.276;2024-02-15T10:52:37;0.40;;;0.40;;
83556;SDS011;73523;55.740;13.276;2024-02-15T10:55:13;1.13;;;0.52;;
83556;SDS011;73523;55.740;13.276;2024-02-15T10:57:46;0.60;;;0.50;;
83556;SDS011;73523;55.740;13.276;2024-02-15T11:00:16;0.60;;;0.60;;
83556;SDS011;73523;55.740;13.276;2024-02-15T11:02:54;0.57;;;0.50;;
83556;SDS011;73523;55.740;13.276;2024-02-15T11:05:36;0.80;;;0.50;;
83556;SDS011;73523;55.740;13.276;2024-02-15T11:08:05;0.40;;;0.40;;
83556;SDS011;73523;55.740;13.276;2024-02-15T11:10:33;0.60;;;0.52;;
83556;SDS011;73523;55.740;13.276;2024-02-15T11:13:00;0.60;;;0.50;;
83556;SDS011;73523;55.740;13.276;2024-02-15T11:18:01;0.65;;;0.47;;
83556;SDS011;73523;55.740;13.276;2024-02-15T11:22:58;0.60;;;0.55;;
83556;SDS011;73523;55.740;13.276;2024-02-15T11:30:55;0.60;;;0.60;;
83556;SDS011;73523;55.740;13.276;2024-02-15T11:38:30;0.60;;;0.50;;
83556;SDS011;73523;55.740;13.276;2024-02-15T11:46:06;0.70;;;0.50;;
83556;SDS011;73523;55.740;13.276;2024-02-15T11:48:35;0.63;;;0.52;;
83556;SDS011;73523;55.740;13.276;2024-02-15T11:51:04;0.60;;;0.57;;
83556;SDS011;73523;55.740;13.276;2024-02-15T11:53:31;0.65;;;0.52;;
83556;SDS011;73523;55.740;13.276;2024-02-15T11:55:59;0.93;;;0.60;;
83556;SDS011;73523;55.740;13.276;2024-02-15T11:58:25;1.00;;;0.65;;
83556;SDS011;73523;55.740;13.276;2024-02-15T12:00:59;0.70;;;0.60;;
83556;SDS011;73523;55.740;13.276;2024-02-15T12:03:43;0.50;;;0.40;;
83556;SDS011;73523;55.740;13.276;2024-02-15T12:06:28;0.70;;;0.57;;
83556;SDS011;73523;55.740;13.276;2024-02-15T12:09:11;0.70;;;0.50;;
83556;SDS011;73523;55.740;13.276;2024-02-15T12:11:59;0.57;;;0.50;;
83556;SDS011;73523;55.740;13.276;2024-02-15T12:14:42;0.80;;;0.70;;
83556;SDS011;73523;55.740;13.276;2024-02-15T12:17:26;1.10;;;0.40;;
83556;SDS011;73523;55.740;13.276;2024-02-15T12:20:10;0.73;;;0.50;;
83556;SDS011;73523;55.740;13.276;2024-02-15T12:22:39;1.80;;;0.50;;
83556;SDS011;73523;55.740;13.276;2024-02-15T12:25:12;0.50;;;0.40;;
83556;SDS011;73523;55.740;13.276;2024-02-15T12:27:43;0.50;;;0.50;;
83556;SDS011;73523;55.740;13.276;2024-02-15T12:30:15;0.80;;;0.60;;
83556;SDS011;73523;55.740;13.276;2024-02-15T12:32:45;0.50;;;0.40;;
83556;SDS011;73523;55.740;13.276;2024-02-15T12:35:13;0.68;;;0.60;;
83556;SDS011;73523;55.740;13.276;2024-02-15T12:37:44;0.90;;;0.52;;
83556;SDS011;73523;55.740;13.276;2024-02-15T12:40:13;0.60;;;0.50;;
83556;SDS011;73523;55.740;13.276;2024-02-15T12:42:44;0.50;;;0.50;;
83556;SDS011;73523;55.740;13.276;2024-02-15T12:45:15;0.55;;;0.40;;
83556;SDS011;73523;55.740;13.276;2024-02-15T12:47:45;0.52;;;0.45;;
83556;SDS011;73523;55.740;13.276;2024-02-15T12:50:21;0.47;;;0.40;;
83556;SDS011;73523;55.740;13.276;2024-02-15T12:52:49;1.45;;;0.68;;
83556;SDS011;73523;55.740;13.276;2024-02-15T12:55:16;0.50;;;0.50;;
83556;SDS011;73523;55.740;13.276;2024-02-15T12:57:47;1.25;;;0.38;;
83556;SDS011;73523;55.740;13.276;2024-02-15T13:00:23;0.50;;;0.50;;
83556;SDS011;73523;55.740;13.276;2024-02-15T13:02:54;0.63;;;0.40;;
83556;SDS011;73523;55.740;13.276;2024-02-15T13:05:20;0.50;;;0.40;;
83556;SDS011;73523;55.740;13.276;2024-02-15T13:07:50;0.52;;;0.52;;
83556;SDS011;73523;55.740;13.276;2024-02-15T13:10:16;0.77;;;0.45;;
83556;SDS011;73523;55.740;13.276;2024-02-15T13:12:42;0.50;;;0.50;;
83556;SDS011;73523;55.740;13.276;2024-02-15T13:15:09;0.75;;;0.40;;
83556;SDS011;73523;55.740;13.276;2024-02-15T13:17:49;0.60;;;0.50;;
83556;SDS011;73523;55.740;13.276;2024-02-15T13:20:18;0.50;;;0.50;;
83556;SDS011;73523;55.740;13.276;2024-02-15T13:23:03;0.50;;;0.50;;
83556;SDS011;73523;55.740;13.276;2024-02-15T13:25:47;0.80;;;0.50;;
83556;SDS011;73523;55.740;13.276;2024-02-15T13:28:13;0.55;;;0.40;;
83556;SDS011;73523;55.740;13.276;2024-02-15T13:30:39;0.40;;;0.40;;
83556;SDS011;73523;55.740;13.276;2024-02-15T13:33:06;0.57;;;0.40;;
83556;SDS011;73523;55.740;13.276;2024-02-15T13:35:31;0.83;;;0.37;;
83556;SDS011;73523;55.740;13.276;2024-02-15T13:37:57;0.40;;;0.40;;
83556;SDS011;73523;55.740;13.276;2024-02-15T13:40:23;0.70;;;0.35;;
83556;SDS011;73523;55.740;13.276;2024-02-15T13:42:51;0.38;;;0.32;;
83556;SDS011;73523;55.740;13.276;2024-02-15T13:45:24;0.50;;;0.50;;
83556;SDS011;73523;55.740;13.276;2024-02-15T13:47:55;0.50;;;0.40;;
83556;SDS011;73523;55.740;13.276;2024-02-15T13:50:22;0.55;;;0.50;;
83556;SDS011;73523;55.740;13.276;2024-02-15T13:52:48;0.55;;;0.40;;
83556;SDS011;73523;55.740;13.276;2024-02-15T13:55:15;0.70;;;0.50;;
83556;SDS011;73523;55.740;13.276;2024-02-15T13:57:44;0.40;;;0.40;;
83556;SDS011;73523;55.740;13.276;2024-02-15T14:00:12;0.45;;;0.30;;
83556;SDS011;73523;55.740;13.276;2024-02-15T14:02:55;0.35;;;0.32;;
83556;SDS011;73523;55.740;13.276;2024-02-15T14:05:22;0.60;;;0.40;;
83556;SDS011;73523;55.740;13.276;2024-02-15T14:07:57;0.50;;;0.40;;
83556;SDS011;73523;55.740;13.276;2024-02-15T14:10:36;0.68;;;0.40;;
83556;SDS011;73523;55.740;13.276;2024-02-15T14:13:02;0.50;;;0.40;;
83556;SDS011;73523;55.740;13.276;2024-02-15T14:15:29;0.55;;;0.30;;
83556;SDS011;73523;55.740;13.276;2024-02-15T14:17:54;0.60;;;0.43;;
83556;SDS011;73523;55.740;13.276;2024-02-15T14:20:21;0.45;;;0.40;;
83556;SDS011;73523;55.740;13.276;2024-02-15T14:22:47;0.43;;;0.40;;
83556;SDS011;73523;55.740;13.276;2024-02-15T14:25:25;0.80;;;0.40;;
83556;SDS011;73523;55.740;13.276;2024-02-15T14:27:54;0.30;;;0.30;;
83556;SDS011;73523;55.740;13.276;2024-02-15T14:30:19;0.30;;;0.30;;
83556;SDS011;73523;55.740;13.276;2024-02-15T14:33:04;0.82;;;0.50;;
83556;SDS011;73523;55.740;13.276;2024-02-15T14:38:04;0.47;;;0.32;;
83556;SDS011;73523;55.740;13.276;2024-02-15T14:40:36;0.68;;;0.38;;
83556;SDS011;73523;55.740;13.276;2024-02-15T14:43:02;0.40;;;0.20;;
83556;SDS011;73523;55.740;13.276;2024-02-15T14:45:29;0.50;;;0.40;;
83556;SDS011;73523;55.740;13.276;2024-02-15T14:47:58;0.63;;;0.50;;
83556;SDS011;73523;55.740;13.276;2024-02-15T14:50:23;0.35;;;0.30;;
83556;SDS011;73523;55.740;13.276;2024-02-15T14:52:49;0.43;;;0.40;;
83556;SDS011;73523;55.740;13.276;2024-02-15T14:55:14;0.50;;;0.30;;
83556;SDS011;73523;55.740;13.276;2024-02-15T14:57:40;0.83;;;0.33;;
83556;SDS011;73523;55.740;13.276;2024-02-15T15:00:06;0.40;;;0.30;;
83556;SDS011;73523;55.740;13.276;2024-02-15T15:02:39;0.43;;;0.30;;
83556;SDS011;73523;55.740;13.276;2024-02-15T15:05:06;0.50;;;0.50;;